Time;durP1;ratioP1;P1;durP2;ratioP2;P2;SDS_P1;SDS_P2;PMS_P1;PMS_P2;Temp;Humidity;BMP_temperature;BMP_pressure;BME280_temperature;BME280_humidity;BME280_pressure;Samples;Min_cycle;Max_cycle;Signal;HPM_P1;HPM_P2
2022/12/28 00:02:08;;;;;;;7.03;3.53;;;;;;;;;;4983717;28;20213;-59
2022/12/28 00:04:35;;;;;;;5.80;3.63;;;;;;;;;;4986301;28;20217;-58
2022/12/28 00:07:02;;;;;;;5.47;3.27;;;;;;;;;;4986015;28;20193;-58
2022/12/28 00:09:29;;;;;;;6.80;3.90;;;;;;;;;;4979631;28;20220;-58
2022/12/28 00:11:56;;;;;;;7.40;3.90;;;;;;;;;;4985975;28;20241;-58
2022/12/28 00:14:26;;;;;;;5.93;3.70;;;;;;;;;;4983127;28;20301;-59
2022/12/28 00:16:54;;;;;;;7.50;3.60;;;;;;;;;;4981496;28;20210;-58
2022/12/28 00:19:21;;;;;;;8.17;3.57;;;;;;;;;;4982067;28;20219;-57
2022/12/28 00:21:48;;;;;;;7.63;4.07;;;;;;;;;;4984940;28;20197;-56
2022/12/28 00:24:18;;;;;;;7.90;4.30;;;;;;;;;;4982004;28;20198;-58
2022/12/28 00:26:45;;;;;;;5.93;3.70;;;;;;;;;;4986097;28;20267;-60
2022/12/28 00:29:12;;;;;;;6.87;4.00;;;;;;;;;;4985584;28;20201;-59
2022/12/28 00:31:41;;;;;;;6.83;4.23;;;;;;;;;;4986970;28;20214;-57
2022/12/28 00:34:08;;;;;;;8.80;3.87;;;;;;;;;;4983742;28;20205;-57
2022/12/28 00:36:35;;;;;;;6.67;4.50;;;;;;;;;;4981954;28;20217;-56
2022/12/28 00:39:02;;;;;;;6.70;4.30;;;;;;;;;;4987185;28;20217;-58
2022/12/28 00:41:30;;;;;;;6.43;4.00;;;;;;;;;;4988671;28;20210;-59
2022/12/28 00:43:57;;;;;;;7.03;4.10;;;;;;;;;;4990003;28;20204;-57
2022/12/28 00:46:24;;;;;;;6.13;4.60;;;;;;;;;;4981880;28;20208;-58
2022/12/28 00:48:52;;;;;;;7.23;4.83;;;;;;;;;;4981748;28;20203;-58
2022/12/28 00:51:20;;;;;;;6.67;4.30;;;;;;;;;;4981109;28;20209;-56
2022/12/28 00:53:47;;;;;;;7.07;4.50;;;;;;;;;;4980999;28;20202;-56
2022/12/28 00:56:16;;;;;;;6.37;4.27;;;;;;;;;;4980298;28;20206;-58
2022/12/28 00:58:43;;;;;;;6.37;4.30;;;;;;;;;;4982556;28;20209;-58
2022/12/28 01:01:12;;;;;;;6.60;4.60;;;;;;;;;;4981292;28;20208;-59
2022/12/28 01:03:39;;;;;;;5.07;3.80;;;;;;;;;;4982682;28;20212;-58
2022/12/28 01:06:08;;;;;;;7.37;4.60;;;;;;;;;;4980651;28;20206;-57
2022/12/28 01:08:36;;;;;;;9.57;4.43;;;;;;;;;;4981117;28;20198;-58
2022/12/28 01:11:06;;;;;;;7.73;4.50;;;;;;;;;;4981391;28;20241;-59
2022/12/28 01:13:34;;;;;;;5.20;4.17;;;;;;;;;;4984221;28;20210;-59
2022/12/28 01:16:01;;;;;;;7.50;5.03;;;;;;;;;;4982734;28;20201;-60
2022/12/28 01:18:28;;;;;;;8.03;4.50;;;;;;;;;;4980627;28;20201;-58
2022/12/28 01:20:55;;;;;;;7.20;4.33;;;;;;;;;;4982283;28;20233;-59
2022/12/28 01:23:23;;;;;;;6.63;4.37;;;;;;;;;;4980732;28;20209;-59
2022/12/28 01:25:50;;;;;;;6.43;4.77;;;;;;;;;;4982605;28;20216;-60
2022/12/28 01:28:17;;;;;;;7.87;4.70;;;;;;;;;;4981882;28;20460;-57
2022/12/28 01:30:45;;;;;;;9.40;4.50;;;;;;;;;;4982708;28;20209;-59
2022/12/28 01:33:12;;;;;;;6.47;4.50;;;;;;;;;;4982531;28;20309;-58
2022/12/28 01:35:39;;;;;;;8.43;4.77;;;;;;;;;;4980740;28;20202;-58
2022/12/28 01:38:06;;;;;;;5.77;4.40;;;;;;;;;;4996945;28;20206;-57
2022/12/28 01:40:34;;;;;;;6.87;5.10;;;;;;;;;;4981360;28;20218;-58
2022/12/28 01:43:01;;;;;;;7.33;4.63;;;;;;;;;;4985748;28;20212;-58
2022/12/28 01:45:29;;;;;;;6.37;4.23;;;;;;;;;;4985222;28;20213;-57
2022/12/28 01:47:56;;;;;;;6.20;4.67;;;;;;;;;;4985985;28;20213;-57
2022/12/28 01:50:26;;;;;;;8.43;4.53;;;;;;;;;;4985649;28;20417;-59
2022/12/28 01:52:56;;;;;;;5.70;4.30;;;;;;;;;;4977980;28;20213;-58
2022/12/28 01:55:25;;;;;;;10.00;4.50;;;;;;;;;;4989358;28;20205;-57
2022/12/28 01:57:56;;;;;;;6.63;4.80;;;;;;;;;;4982613;28;20216;-59
2022/12/28 02:00:23;;;;;;;6.67;4.80;;;;;;;;;;4990240;28;20221;-60
2022/12/28 02:02:53;;;;;;;5.60;4.53;;;;;;;;;;4988838;28;20205;-59
2022/12/28 02:05:21;;;;;;;5.90;4.60;;;;;;;;;;4989523;28;20205;-58
2022/12/28 02:07:51;;;;;;;6.40;4.40;;;;;;;;;;4988140;28;20208;-58
2022/12/28 02:10:19;;;;;;;7.13;4.50;;;;;;;;;;4980674;28;20195;-58
2022/12/28 02:12:46;;;;;;;8.63;5.07;;;;;;;;;;4986621;28;20209;-58
2022/12/28 02:15:15;;;;;;;7.87;4.60;;;;;;;;;;4982976;28;20209;-58
2022/12/28 02:17:42;;;;;;;6.67;4.60;;;;;;;;;;4982778;28;20212;-58
2022/12/28 02:20:10;;;;;;;11.83;5.03;;;;;;;;;;4980601;28;20218;-58
2022/12/28 02:22:55;;;;;;;7.00;4.20;;;;;;;;;;4979648;28;20202;-58
2022/12/28 02:25:43;;;;;;;5.63;3.97;;;;;;;;;;4942170;28;20216;-58
2022/12/28 02:28:18;;;;;;;5.63;3.90;;;;;;;;;;4981576;28;20205;-58
2022/12/28 02:30:49;;;;;;;7.63;4.30;;;;;;;;;;4984612;28;20201;-56
2022/12/28 02:33:19;;;;;;;6.83;3.90;;;;;;;;;;4985317;28;20200;-58
2022/12/28 02:35:49;;;;;;;5.67;3.97;;;;;;;;;;4983182;28;20202;-58
2022/12/28 02:38:19;;;;;;;4.20;3.50;;;;;;;;;;4977608;28;20205;-56
2022/12/28 02:40:47;;;;;;;8.07;3.70;;;;;;;;;;4983952;28;20224;-60
2022/12/28 02:43:15;;;;;;;4.50;3.77;;;;;;;;;;4985071;28;20595;-58
2022/12/28 02:51:50;;;;;;;7.10;3.60;;;;;;;;;;4978513;28;20236;-59
2022/12/28 02:57:20;;;;;;;4.63;3.30;;;;;;;;;;4982933;28;20202;-59
2022/12/28 02:59:53;;;;;;;6.67;3.50;;;;;;;;;;4983279;28;20236;-58
2022/12/28 03:02:36;;;;;;;8.47;3.73;;;;;;;;;;4982119;28;20204;-59
2022/12/28 03:05:10;;;;;;;7.40;3.80;;;;;;;;;;4983599;28;20201;-59
2022/12/28 03:10:28;;;;;;;5.77;3.10;;;;;;;;;;4982605;28;20220;-59
2022/12/28 03:12:57;;;;;;;6.43;3.60;;;;;;;;;;4984419;28;20202;-59
2022/12/28 03:15:29;;;;;;;4.03;3.30;;;;;;;;;;4980405;28;20217;-58
2022/12/28 03:31:48;;;;;;;5.20;3.07;;;;;;;;;;4986077;28;20277;-57
2022/12/28 03:34:15;;;;;;;5.63;3.17;;;;;;;;;;4994806;28;20225;-59
2022/12/28 03:36:47;;;;;;;4.40;2.90;;;;;;;;;;4984757;28;20345;-59
2022/12/28 03:39:16;;;;;;;7.77;3.10;;;;;;;;;;4990457;28;20289;-59
2022/12/28 03:41:46;;;;;;;4.07;2.80;;;;;;;;;;4986194;28;20197;-58
2022/12/28 03:44:15;;;;;;;5.73;3.27;;;;;;;;;;4981154;28;20301;-58
2022/12/28 03:46:45;;;;;;;5.97;3.40;;;;;;;;;;4986331;28;20205;-57
2022/12/28 03:49:12;;;;;;;8.17;3.43;;;;;;;;;;4983326;28;20296;-59
2022/12/28 03:51:40;;;;;;;3.47;3.00;;;;;;;;;;4984606;28;20289;-59
2022/12/28 03:54:08;;;;;;;6.27;3.40;;;;;;;;;;4983493;28;20202;-60
2022/12/28 03:56:45;;;;;;;3.07;2.73;;;;;;;;;;4979585;28;20231;-58
2022/12/28 03:59:12;;;;;;;5.30;2.93;;;;;;;;;;4982965;28;20285;-58
2022/12/28 04:01:39;;;;;;;7.93;3.10;;;;;;;;;;4981043;28;20244;-59
2022/12/28 04:04:06;;;;;;;6.53;3.23;;;;;;;;;;4984315;28;20214;-58
2022/12/28 04:06:34;;;;;;;3.47;2.40;;;;;;;;;;4989309;28;20202;-58
2022/12/28 04:09:01;;;;;;;5.30;2.97;;;;;;;;;;4984123;28;20205;-59
2022/12/28 04:11:29;;;;;;;4.60;2.80;;;;;;;;;;4984352;28;20236;-59
2022/12/28 04:13:56;;;;;;;4.20;2.37;;;;;;;;;;4986913;28;20210;-59
2022/12/28 04:16:24;;;;;;;5.53;2.60;;;;;;;;;;4978718;28;20190;-58
2022/12/28 04:18:51;;;;;;;7.23;2.80;;;;;;;;;;4984213;28;20201;-59
2022/12/28 04:21:18;;;;;;;4.20;2.70;;;;;;;;;;4983295;28;20230;-59
2022/12/28 04:23:45;;;;;;;5.80;2.77;;;;;;;;;;4985894;28;20210;-59
2022/12/28 04:26:13;;;;;;;5.40;2.37;;;;;;;;;;4986259;28;20212;-59
2022/12/28 04:28:43;;;;;;;3.53;2.60;;;;;;;;;;4985262;28;20242;-58
2022/12/28 04:31:12;;;;;;;3.83;2.47;;;;;;;;;;4981977;28;20198;-59
2022/12/28 04:33:40;;;;;;;8.90;2.87;;;;;;;;;;4984149;28;20212;-58
2022/12/28 04:36:07;;;;;;;3.17;2.73;;;;;;;;;;4983396;28;20289;-58
2022/12/28 04:38:35;;;;;;;3.70;2.20;;;;;;;;;;4982885;28;20209;-59
2022/12/28 04:41:02;;;;;;;2.50;2.10;;;;;;;;;;4990402;28;20215;-59
2022/12/28 04:43:30;;;;;;;4.87;2.40;;;;;;;;;;4980557;28;20209;-59
2022/12/28 04:45:59;;;;;;;4.67;2.70;;;;;;;;;;4987473;28;20205;-58
2022/12/28 04:48:26;;;;;;;2.30;2.03;;;;;;;;;;4982871;28;20209;-58
2022/12/28 04:50:53;;;;;;;4.07;2.37;;;;;;;;;;4981737;28;20212;-58
2022/12/28 04:53:20;;;;;;;5.13;2.40;;;;;;;;;;4981091;28;20205;-59
2022/12/28 04:55:47;;;;;;;5.17;2.17;;;;;;;;;;4985218;28;20197;-59
2022/12/28 04:58:15;;;;;;;4.87;2.30;;;;;;;;;;4980549;28;20206;-59
2022/12/28 05:00:42;;;;;;;4.43;1.90;;;;;;;;;;4985117;28;20228;-60
2022/12/28 05:03:10;;;;;;;3.00;2.00;;;;;;;;;;4991550;28;20212;-59
2022/12/28 05:05:37;;;;;;;4.97;2.30;;;;;;;;;;4989764;28;20217;-58
2022/12/28 05:08:05;;;;;;;3.73;2.20;;;;;;;;;;4989694;28;20201;-58
2022/12/28 05:10:32;;;;;;;4.87;2.10;;;;;;;;;;4977785;28;20493;-58
2022/12/28 05:12:59;;;;;;;4.80;2.33;;;;;;;;;;4984153;28;20197;-58
2022/12/28 05:15:26;;;;;;;5.27;2.40;;;;;;;;;;4982515;28;20205;-57
2022/12/28 05:17:55;;;;;;;5.73;2.20;;;;;;;;;;4980864;28;20218;-58
2022/12/28 05:20:23;;;;;;;6.17;2.50;;;;;;;;;;4984403;28;20264;-58
2022/12/28 05:22:50;;;;;;;4.80;2.10;;;;;;;;;;4982774;28;20214;-58
2022/12/28 05:25:17;;;;;;;4.57;1.80;;;;;;;;;;4985208;28;20209;-58
2022/12/28 05:27:44;;;;;;;4.30;2.20;;;;;;;;;;4984278;28;20197;-58
2022/12/28 05:30:12;;;;;;;2.23;1.80;;;;;;;;;;4973735;28;20237;-58
2022/12/28 05:32:39;;;;;;;2.67;1.87;;;;;;;;;;4979256;28;20202;-58
2022/12/28 05:35:06;;;;;;;3.23;2.10;;;;;;;;;;4977011;28;20215;-59
2022/12/28 05:37:35;;;;;;;4.03;2.07;;;;;;;;;;4982209;28;20220;-59
2022/12/28 05:40:02;;;;;;;4.37;2.07;;;;;;;;;;4976664;28;20202;-58
2022/12/28 05:42:29;;;;;;;5.77;2.50;;;;;;;;;;4980856;28;20213;-60
2022/12/28 05:44:56;;;;;;;5.70;2.23;;;;;;;;;;4982461;28;20205;-58
2022/12/28 05:47:23;;;;;;;4.57;2.00;;;;;;;;;;4971069;28;20209;-58
2022/12/28 05:49:51;;;;;;;3.90;1.80;;;;;;;;;;4978804;28;20202;-58
2022/12/28 05:52:18;;;;;;;4.03;2.10;;;;;;;;;;4974070;28;20198;-58
2022/12/28 05:54:46;;;;;;;6.40;2.00;;;;;;;;;;4982396;28;20205;-59
2022/12/28 05:57:13;;;;;;;3.07;2.00;;;;;;;;;;4979419;28;20211;-59
2022/12/28 05:59:40;;;;;;;4.83;2.10;;;;;;;;;;4976949;28;20202;-59
2022/12/28 06:02:07;;;;;;;4.67;2.10;;;;;;;;;;4981877;28;20237;-58
2022/12/28 06:04:35;;;;;;;4.97;2.27;;;;;;;;;;4972562;28;20332;-59
2022/12/28 06:07:02;;;;;;;2.13;1.80;;;;;;;;;;4968324;28;20198;-59
2022/12/28 06:09:29;;;;;;;6.33;2.10;;;;;;;;;;4978569;28;21477;-59
2022/12/28 06:11:57;;;;;;;6.17;2.57;;;;;;;;;;4972433;28;20244;-58
2022/12/28 06:14:24;;;;;;;4.60;1.87;;;;;;;;;;4983043;28;20205;-61
2022/12/28 06:16:51;;;;;;;3.17;1.80;;;;;;;;;;4988485;28;20209;-61
2022/12/28 06:19:19;;;;;;;4.10;2.03;;;;;;;;;;4980800;28;20202;-61
2022/12/28 06:21:46;;;;;;;4.10;2.13;;;;;;;;;;4985642;28;20209;-62
2022/12/28 06:24:13;;;;;;;3.70;2.00;;;;;;;;;;4987528;28;20217;-62
2022/12/28 06:26:41;;;;;;;6.53;2.60;;;;;;;;;;4986498;28;20229;-62
2022/12/28 06:29:09;;;;;;;5.77;2.70;;;;;;;;;;4986353;28;20220;-61
2022/12/28 06:31:37;;;;;;;3.97;1.90;;;;;;;;;;4981285;28;20300;-62
2022/12/28 06:34:06;;;;;;;3.83;2.17;;;;;;;;;;4983112;28;20206;-60
2022/12/28 06:36:34;;;;;;;4.07;2.07;;;;;;;;;;4978457;28;20205;-62
2022/12/28 06:39:01;;;;;;;4.70;2.13;;;;;;;;;;4983957;28;20233;-62
2022/12/28 06:41:29;;;;;;;3.57;2.17;;;;;;;;;;4982666;28;20229;-62
2022/12/28 06:43:56;;;;;;;3.20;2.00;;;;;;;;;;4990294;28;20207;-62
2022/12/28 06:46:26;;;;;;;4.33;2.00;;;;;;;;;;4980233;28;20204;-60
2022/12/28 06:48:53;;;;;;;3.90;1.90;;;;;;;;;;4983420;28;20208;-62
2022/12/28 06:51:22;;;;;;;3.13;1.97;;;;;;;;;;4988758;28;20201;-61
2022/12/28 06:53:50;;;;;;;5.80;1.90;;;;;;;;;;4988151;28;20210;-62
2022/12/28 06:56:18;;;;;;;3.97;1.80;;;;;;;;;;4979221;28;20206;-63
2022/12/28 06:58:45;;;;;;;3.20;1.90;;;;;;;;;;4983939;28;21159;-62
2022/12/28 07:01:13;;;;;;;5.60;1.87;;;;;;;;;;4993263;28;20221;-61
2022/12/28 07:03:45;;;;;;;4.63;2.00;;;;;;;;;;4990049;28;20199;-61
2022/12/28 07:06:15;;;;;;;4.23;1.87;;;;;;;;;;4985953;28;20208;-61
2022/12/28 07:08:43;;;;;;;2.90;1.90;;;;;;;;;;4987782;28;20229;-62
2022/12/28 07:11:11;;;;;;;4.17;1.80;;;;;;;;;;4981557;28;20237;-61
2022/12/28 07:13:38;;;;;;;3.20;1.80;;;;;;;;;;4988468;28;20213;-61
2022/12/28 07:16:07;;;;;;;7.20;2.00;;;;;;;;;;4985922;28;20198;-62
2022/12/28 07:18:34;;;;;;;3.83;2.20;;;;;;;;;;4985003;28;20201;-62
2022/12/28 07:21:04;;;;;;;3.33;2.50;;;;;;;;;;4985524;28;20221;-61
2022/12/28 07:23:32;;;;;;;2.93;2.00;;;;;;;;;;4989561;28;20208;-62
2022/12/28 07:26:04;;;;;;;5.67;2.17;;;;;;;;;;4991093;28;20292;-62
2022/12/28 07:28:31;;;;;;;9.83;5.97;;;;;;;;;;4984664;28;20210;-62
2022/12/28 07:30:58;;;;;;;5.30;2.27;;;;;;;;;;4985440;28;20197;-62
2022/12/28 07:33:25;;;;;;;3.93;2.33;;;;;;;;;;4987480;28;20201;-61
2022/12/28 07:35:53;;;;;;;4.53;1.90;;;;;;;;;;4983471;28;20201;-62
2022/12/28 07:38:21;;;;;;;4.23;1.97;;;;;;;;;;4985908;28;20216;-61
2022/12/28 07:40:48;;;;;;;3.13;2.00;;;;;;;;;;4985026;28;20216;-62
2022/12/28 07:43:15;;;;;;;5.10;2.20;;;;;;;;;;4988265;28;20205;-62
2022/12/28 07:45:42;;;;;;;3.67;2.23;;;;;;;;;;4989721;28;20209;-62
2022/12/28 07:48:09;;;;;;;4.57;2.20;;;;;;;;;;4984251;28;20202;-61
2022/12/28 07:50:36;;;;;;;5.67;2.40;;;;;;;;;;4982943;28;20202;-62
2022/12/28 07:53:04;;;;;;;6.13;2.57;;;;;;;;;;4983395;28;20206;-62
2022/12/28 07:55:32;;;;;;;5.20;2.23;;;;;;;;;;4987604;28;20207;-61
2022/12/28 07:57:59;;;;;;;5.43;2.50;;;;;;;;;;4982236;28;20198;-62
2022/12/28 08:00:26;;;;;;;6.77;2.43;;;;;;;;;;4984310;28;20201;-62
2022/12/28 08:02:56;;;;;;;4.13;2.80;;;;;;;;;;4988653;28;20213;-62
2022/12/28 08:05:23;;;;;;;7.40;2.63;;;;;;;;;;4983792;28;20229;-62
2022/12/28 08:07:50;;;;;;;4.20;2.37;;;;;;;;;;4985777;28;20200;-62
2022/12/28 08:10:17;;;;;;;3.07;2.20;;;;;;;;;;4984851;28;20209;-61
2022/12/28 08:12:45;;;;;;;3.50;2.27;;;;;;;;;;4984547;28;20198;-62
2022/12/28 08:15:12;;;;;;;3.60;2.00;;;;;;;;;;4979142;28;20213;-61
2022/12/28 08:17:40;;;;;;;4.13;2.30;;;;;;;;;;4977756;28;20201;-61
2022/12/28 08:20:07;;;;;;;5.10;1.80;;;;;;;;;;4979004;28;20217;-62
2022/12/28 08:22:34;;;;;;;3.93;2.20;;;;;;;;;;4984246;28;20285;-62
2022/12/28 08:25:02;;;;;;;3.27;1.90;;;;;;;;;;4990915;28;20209;-61
2022/12/28 08:27:29;;;;;;;4.10;2.23;;;;;;;;;;4985235;28;20220;-61
2022/12/28 08:29:57;;;;;;;7.23;2.20;;;;;;;;;;4983632;28;20217;-61
2022/12/28 08:32:25;;;;;;;6.33;2.00;;;;;;;;;;4984085;28;21487;-61
2022/12/28 08:34:52;;;;;;;4.47;2.00;;;;;;;;;;4981802;28;20212;-61
2022/12/28 08:37:19;;;;;;;4.93;2.10;;;;;;;;;;4982552;28;20221;-60
2022/12/28 08:39:46;;;;;;;3.23;1.80;;;;;;;;;;4981434;28;20209;-61
2022/12/28 08:42:13;;;;;;;3.47;1.70;;;;;;;;;;4980427;28;20215;-59
2022/12/28 08:44:40;;;;;;;5.97;2.00;;;;;;;;;;4978377;28;20213;-61
2022/12/28 08:47:09;;;;;;;6.83;1.80;;;;;;;;;;4980926;28;20190;-62
2022/12/28 08:49:36;;;;;;;3.60;1.90;;;;;;;;;;4978491;28;20465;-62
2022/12/28 08:52:03;;;;;;;6.80;1.60;;;;;;;;;;4982125;28;20198;-61
2022/12/28 08:54:31;;;;;;;4.27;2.03;;;;;;;;;;4984359;28;20217;-60
2022/12/28 08:57:01;;;;;;;4.83;1.87;;;;;;;;;;4985650;28;20193;-62
2022/12/28 08:59:28;;;;;;;5.33;2.10;;;;;;;;;;4985914;28;20202;-61
2022/12/28 09:01:55;;;;;;;5.30;1.80;;;;;;;;;;4980565;28;20244;-59
2022/12/28 09:04:24;;;;;;;4.60;1.90;;;;;;;;;;4985513;28;20201;-61
2022/12/28 09:06:51;;;;;;;4.37;1.73;;;;;;;;;;4990011;28;20292;-61
2022/12/28 09:09:19;;;;;;;6.30;1.90;;;;;;;;;;4978591;28;20304;-61
2022/12/28 09:11:47;;;;;;;3.57;1.80;;;;;;;;;;4979677;28;20236;-62
2022/12/28 09:14:15;;;;;;;3.73;1.80;;;;;;;;;;4979160;28;20205;-60
2022/12/28 09:16:42;;;;;;;3.03;1.80;;;;;;;;;;4981821;28;20202;-62
2022/12/28 09:19:12;;;;;;;3.20;2.03;;;;;;;;;;4988431;28;20298;-62
2022/12/28 09:21:41;;;;;;;6.90;2.30;;;;;;;;;;4985486;28;20237;-62
2022/12/28 09:24:09;;;;;;;4.87;1.73;;;;;;;;;;4985552;28;20229;-61
2022/12/28 09:26:38;;;;;;;3.17;2.00;;;;;;;;;;4983926;28;20204;-61
2022/12/28 09:29:07;;;;;;;5.07;2.40;;;;;;;;;;4984153;28;20224;-62
2022/12/28 09:31:35;;;;;;;4.03;2.00;;;;;;;;;;4980090;28;20207;-61
2022/12/28 09:34:03;;;;;;;3.07;2.17;;;;;;;;;;4980087;28;20406;-62
2022/12/28 09:36:31;;;;;;;5.03;2.67;;;;;;;;;;4983340;28;20220;-61
2022/12/28 09:39:00;;;;;;;3.27;2.10;;;;;;;;;;4978810;28;20274;-62
2022/12/28 09:41:30;;;;;;;4.30;2.60;;;;;;;;;;4978877;28;20213;-62
2022/12/28 09:44:05;;;;;;;2.63;1.93;;;;;;;;;;4979867;28;20212;-61
2022/12/28 09:46:32;;;;;;;4.97;1.87;;;;;;;;;;4979848;28;20216;-62
2022/12/28 09:49:01;;;;;;;3.80;2.40;;;;;;;;;;4977104;28;20202;-62
2022/12/28 09:51:32;;;;;;;4.03;2.20;;;;;;;;;;4978767;28;20198;-62
2022/12/28 09:54:00;;;;;;;7.23;1.93;;;;;;;;;;4985079;28;20201;-62
2022/12/28 09:56:29;;;;;;;3.97;1.90;;;;;;;;;;4981438;28;20205;-61
2022/12/28 09:58:56;;;;;;;3.60;1.80;;;;;;;;;;4974595;28;20245;-62
2022/12/28 10:01:25;;;;;;;3.37;1.97;;;;;;;;;;4984195;28;20221;-62
2022/12/28 10:03:52;;;;;;;2.67;1.80;;;;;;;;;;4981761;28;20210;-61
2022/12/28 10:06:22;;;;;;;3.00;1.80;;;;;;;;;;4979817;28;20203;-62
2022/12/28 10:08:50;;;;;;;3.60;1.80;;;;;;;;;;4982560;28;20213;-61
2022/12/28 10:11:20;;;;;;;2.87;1.80;;;;;;;;;;4979460;28;20248;-61
2022/12/28 10:13:49;;;;;;;4.03;2.00;;;;;;;;;;4980462;28;20204;-61
2022/12/28 10:16:18;;;;;;;5.10;1.73;;;;;;;;;;4984619;28;20216;-61
2022/12/28 10:18:45;;;;;;;3.17;2.03;;;;;;;;;;4981836;28;20284;-61
2022/12/28 10:21:13;;;;;;;6.70;1.80;;;;;;;;;;4979525;28;20267;-60
2022/12/28 10:23:41;;;;;;;4.60;1.70;;;;;;;;;;4982126;28;20213;-62
2022/12/28 10:26:12;;;;;;;2.60;1.50;;;;;;;;;;4987150;28;20225;-61
2022/12/28 10:28:45;;;;;;;3.77;1.77;;;;;;;;;;4978669;28;20201;-62
2022/12/28 10:31:13;;;;;;;3.57;1.83;;;;;;;;;;4978529;28;20202;-61
2022/12/28 10:33:41;;;;;;;2.40;2.20;;;;;;;;;;4980999;28;20201;-60
2022/12/28 10:36:12;;;;;;;7.73;3.40;;;;;;;;;;4980212;28;20201;-61
2022/12/28 10:38:41;;;;;;;1.73;1.60;;;;;;;;;;4981866;28;20219;-62
2022/12/28 10:41:10;;;;;;;3.23;1.60;;;;;;;;;;4979103;28;20205;-61
2022/12/28 10:43:39;;;;;;;2.40;1.60;;;;;;;;;;4975312;28;20218;-61
2022/12/28 10:46:15;;;;;;;3.03;1.43;;;;;;;;;;4983305;28;20202;-61
2022/12/28 10:48:44;;;;;;;2.33;1.40;;;;;;;;;;4976854;28;20206;-62
2022/12/28 10:51:13;;;;;;;3.37;1.57;;;;;;;;;;4979221;28;20217;-62
2022/12/28 10:53:41;;;;;;;2.73;1.77;;;;;;;;;;4983696;28;20198;-62
2022/12/28 10:56:18;;;;;;;3.20;1.80;;;;;;;;;;4984767;28;20197;-62
2022/12/28 10:58:46;;;;;;;3.17;1.80;;;;;;;;;;4990123;28;20205;-61
2022/12/28 11:01:18;;;;;;;3.90;1.70;;;;;;;;;;4983270;28;20202;-62
2022/12/28 11:03:46;;;;;;;2.90;1.57;;;;;;;;;;4984750;28;20215;-62
2022/12/28 11:06:14;;;;;;;2.93;1.43;;;;;;;;;;4978399;28;20210;-62
2022/12/28 11:08:42;;;;;;;2.93;1.50;;;;;;;;;;4977983;28;20216;-61
2022/12/28 11:11:18;;;;;;;2.23;1.80;;;;;;;;;;4988115;28;20239;-62
2022/12/28 11:13:46;;;;;;;2.90;1.70;;;;;;;;;;4984262;28;20396;-61
2022/12/28 11:16:13;;;;;;;1.57;1.30;;;;;;;;;;4978964;28;20202;-61
2022/12/28 11:18:42;;;;;;;2.10;1.70;;;;;;;;;;4987093;28;20205;-61
2022/12/28 11:21:11;;;;;;;3.13;1.70;;;;;;;;;;4984196;28;20198;-62
2022/12/28 11:23:38;;;;;;;1.93;1.60;;;;;;;;;;4986701;28;20226;-61
2022/12/28 11:26:09;;;;;;;5.17;1.83;;;;;;;;;;4982869;28;20198;-60
2022/12/28 11:28:37;;;;;;;2.77;1.80;;;;;;;;;;4977686;28;20205;-61
2022/12/28 11:31:04;;;;;;;3.50;1.77;;;;;;;;;;4986321;28;20205;-61
2022/12/28 11:33:36;;;;;;;2.13;1.80;;;;;;;;;;4984759;28;20217;-62
2022/12/28 11:36:05;;;;;;;2.57;1.67;;;;;;;;;;4978467;28;20217;-62
2022/12/28 11:38:38;;;;;;;1.90;1.70;;;;;;;;;;4982945;28;20229;-61
2022/12/28 11:41:06;;;;;;;3.43;1.80;;;;;;;;;;4979973;28;20198;-60
2022/12/28 11:43:39;;;;;;;2.60;1.63;;;;;;;;;;4982467;28;20226;-61
2022/12/28 11:46:06;;;;;;;2.50;1.77;;;;;;;;;;4981929;28;20233;-61
2022/12/28 11:48:46;;;;;;;2.67;1.70;;;;;;;;;;4983807;28;20207;-60
2022/12/28 11:51:17;;;;;;;2.70;1.90;;;;;;;;;;4981222;28;20210;-60
2022/12/28 11:53:52;;;;;;;2.47;1.53;;;;;;;;;;4978065;28;20202;-60
2022/12/28 11:56:19;;;;;;;3.00;1.60;;;;;;;;;;4980121;28;20214;-61
2022/12/28 11:58:48;;;;;;;4.20;1.87;;;;;;;;;;4980285;28;20201;-62
2022/12/28 12:01:35;;;;;;;4.07;1.70;;;;;;;;;;4984040;28;20205;-61
2022/12/28 12:04:10;;;;;;;2.73;1.93;;;;;;;;;;4979511;28;20288;-61
2022/12/28 12:06:56;;;;;;;3.43;1.80;;;;;;;;;;4980776;28;20209;-61
2022/12/28 12:09:29;;;;;;;2.83;1.57;;;;;;;;;;4982148;28;20221;-60
2022/12/28 12:11:57;;;;;;;2.20;2.00;;;;;;;;;;4983546;28;20297;-61
2022/12/28 12:14:25;;;;;;;4.80;1.80;;;;;;;;;;4980757;28;20219;-61
2022/12/28 12:16:54;;;;;;;4.00;2.07;;;;;;;;;;4980885;28;20213;-60
2022/12/28 12:19:24;;;;;;;2.70;2.50;;;;;;;;;;4979222;28;20301;-62
2022/12/28 12:21:57;;;;;;;4.03;2.10;;;;;;;;;;4982401;28;20198;-62
2022/12/28 12:24:28;;;;;;;4.23;1.80;;;;;;;;;;4978844;28;20222;-61
2022/12/28 12:26:57;;;;;;;3.53;2.07;;;;;;;;;;4979499;28;20201;-61
2022/12/28 12:29:28;;;;;;;2.83;2.10;;;;;;;;;;4978830;28;20201;-61
2022/12/28 12:31:58;;;;;;;2.43;2.00;;;;;;;;;;4975545;28;20208;-61
2022/12/28 12:34:27;;;;;;;2.50;1.73;;;;;;;;;;4979900;28;20202;-61
2022/12/28 12:37:12;;;;;;;4.30;1.90;;;;;;;;;;4983307;28;20210;-62
2022/12/28 12:39:57;;;;;;;2.27;1.80;;;;;;;;;;4982044;28;20202;-61
2022/12/28 12:42:28;;;;;;;4.63;1.90;;;;;;;;;;4978357;28;20197;-60
2022/12/28 12:44:58;;;;;;;2.20;2.00;;;;;;;;;;4982551;28;20236;-61
2022/12/28 12:47:38;;;;;;;2.93;1.80;;;;;;;;;;4985328;28;20273;-61
2022/12/28 12:50:15;;;;;;;2.30;1.80;;;;;;;;;;4982190;28;20210;-62
2022/12/28 12:52:47;;;;;;;4.13;1.90;;;;;;;;;;4980967;28;20206;-61
2022/12/28 12:55:21;;;;;;;5.07;2.00;;;;;;;;;;4979159;28;20202;-62
2022/12/28 12:57:53;;;;;;;1.93;1.70;;;;;;;;;;4978221;28;20208;-58
2022/12/28 13:00:23;;;;;;;5.30;2.07;;;;;;;;;;4980000;28;20207;-62
2022/12/28 13:03:05;;;;;;;1.87;1.77;;;;;;;;;;4980111;28;20283;-61
2022/12/28 13:05:32;;;;;;;3.87;1.87;;;;;;;;;;4968566;28;20210;-61
2022/12/28 13:08:00;;;;;;;3.47;1.80;;;;;;;;;;4981481;28;20202;-61
2022/12/28 13:10:32;;;;;;;3.63;2.00;;;;;;;;;;4981520;28;20202;-61
2022/12/28 13:13:00;;;;;;;2.70;1.50;;;;;;;;;;4983657;28;20202;-61
2022/12/28 13:15:28;;;;;;;3.27;1.60;;;;;;;;;;4980511;28;20214;-60
2022/12/28 13:18:02;;;;;;;5.13;1.93;;;;;;;;;;4981665;28;20303;-60
2022/12/28 13:20:29;;;;;;;2.03;1.37;;;;;;;;;;4980710;28;20205;-61
2022/12/28 13:22:56;;;;;;;4.53;1.50;;;;;;;;;;4977506;28;20228;-61
2022/12/28 13:25:24;;;;;;;1.97;1.57;;;;;;;;;;4982892;28;20214;-60
2022/12/28 13:27:53;;;;;;;2.33;1.30;;;;;;;;;;4985479;28;20209;-61
2022/12/28 13:30:21;;;;;;;3.60;1.40;;;;;;;;;;4985330;28;20213;-61
2022/12/28 13:32:51;;;;;;;2.77;1.30;;;;;;;;;;4977392;28;20206;-60
2022/12/28 13:35:19;;;;;;;4.00;1.47;;;;;;;;;;4976962;28;20214;-61
2022/12/28 13:37:58;;;;;;;5.30;1.37;;;;;;;;;;4979859;28;20206;-60
2022/12/28 13:40:26;;;;;;;2.53;1.40;;;;;;;;;;4983186;28;20205;-61
2022/12/28 13:43:01;;;;;;;2.47;1.70;;;;;;;;;;4978048;28;20234;-60
2022/12/28 13:45:28;;;;;;;3.03;1.40;;;;;;;;;;4977450;28;20213;-60
2022/12/28 13:47:56;;;;;;;1.80;1.30;;;;;;;;;;4976462;28;20194;-60
2022/12/28 13:50:25;;;;;;;1.53;1.43;;;;;;;;;;4984053;28;20204;-61
2022/12/28 13:52:54;;;;;;;3.07;1.37;;;;;;;;;;4978506;28;20220;-62
2022/12/28 13:55:24;;;;;;;1.83;1.20;;;;;;;;;;4973481;28;20201;-62
2022/12/28 13:57:53;;;;;;;2.30;1.40;;;;;;;;;;4976471;28;20202;-61
2022/12/28 14:00:23;;;;;;;2.50;1.20;;;;;;;;;;4982420;28;20201;-60
2022/12/28 14:02:52;;;;;;;1.87;1.40;;;;;;;;;;4975396;28;20214;-61
2022/12/28 14:05:20;;;;;;;1.33;1.23;;;;;;;;;;4977589;28;20213;-60
2022/12/28 14:07:48;;;;;;;2.93;1.30;;;;;;;;;;4976657;28;20218;-61
2022/12/28 14:10:16;;;;;;;1.67;1.40;;;;;;;;;;4980232;28;20201;-61
2022/12/28 14:12:44;;;;;;;1.83;1.30;;;;;;;;;;4976446;28;20202;-62
2022/12/28 14:15:12;;;;;;;2.20;1.60;;;;;;;;;;4980270;28;20220;-62
2022/12/28 14:17:41;;;;;;;1.23;1.10;;;;;;;;;;4980196;28;20217;-61
2022/12/28 14:20:09;;;;;;;1.30;1.20;;;;;;;;;;4980452;28;20205;-61
2022/12/28 14:22:38;;;;;;;1.00;1.00;;;;;;;;;;4980799;28;20207;-61
2022/12/28 14:25:07;;;;;;;1.33;1.10;;;;;;;;;;4977821;28;20226;-61
2022/12/28 14:27:36;;;;;;;1.60;1.10;;;;;;;;;;4979342;28;20209;-61
2022/12/28 14:30:03;;;;;;;1.53;1.13;;;;;;;;;;4979224;28;20197;-59
2022/12/28 14:32:30;;;;;;;2.27;1.30;;;;;;;;;;4982487;28;20236;-59
2022/12/28 14:35:00;;;;;;;1.30;1.20;;;;;;;;;;4983515;28;20199;-61
2022/12/28 14:37:28;;;;;;;2.13;1.20;;;;;;;;;;4975555;28;20204;-61
2022/12/28 14:39:58;;;;;;;2.37;1.17;;;;;;;;;;4980063;28;20221;-61
2022/12/28 14:42:26;;;;;;;1.27;1.00;;;;;;;;;;4980063;28;20198;-61
2022/12/28 14:44:53;;;;;;;1.33;1.20;;;;;;;;;;4978498;28;20222;-61
2022/12/28 14:47:35;;;;;;;1.20;1.20;;;;;;;;;;4980245;28;20212;-61
2022/12/28 14:50:05;;;;;;;1.20;1.10;;;;;;;;;;4975349;28;20220;-61
2022/12/28 14:52:42;;;;;;;3.60;1.30;;;;;;;;;;4972176;28;20214;-61
2022/12/28 14:55:27;;;;;;;1.30;1.20;;;;;;;;;;4981973;28;20201;-62
2022/12/28 14:57:55;;;;;;;1.63;1.40;;;;;;;;;;4978962;28;20210;-61
2022/12/28 15:00:24;;;;;;;1.23;1.10;;;;;;;;;;4983194;28;20277;-61
2022/12/28 15:02:51;;;;;;;1.90;1.17;;;;;;;;;;4981534;28;20215;-61
2022/12/28 15:05:40;;;;;;;1.20;1.10;;;;;;;;;;4975307;28;20214;-61
2022/12/28 15:08:07;;;;;;;1.03;1.03;;;;;;;;;;4984722;28;20206;-61
2022/12/28 15:10:36;;;;;;;1.47;1.37;;;;;;;;;;4981168;28;20246;-61
2022/12/28 15:13:03;;;;;;;1.30;1.20;;;;;;;;;;4988953;28;20202;-61
2022/12/28 15:15:31;;;;;;;2.27;1.63;;;;;;;;;;4985421;28;20205;-61
2022/12/28 15:17:58;;;;;;;2.23;1.90;;;;;;;;;;4985043;28;20218;-62
2022/12/28 15:20:26;;;;;;;1.57;1.43;;;;;;;;;;4979571;28;20202;-62